N395T KOQN-KISP
Flight info
| Callsign | N395T |
|---|---|
| Flight time | 0h 32m |
| Altitude | 11000 |
| Route | ARD T438 DIXIE T224 JFK DPK |
| Aircraft | PC12/L-SDFGRWY/S |
Departure
| Time | 2026-04-22 03:43 |
|---|---|
| Airport | Brandywine Regional Airport (KOQN) |
Arrival
| Time | 2026-04-22 04:15 |
|---|---|
| Airport | Long Island MacArthur Airport (KISP) |
| Time | Latitude | Longitude | Altitude | Speed | Heading |
|---|---|---|---|---|---|
| 2026-04-22 03:35 | 39.98993 | -75.57754 | 467 ft | 0 kts | 348° |
| 2026-04-22 03:39 | 39.99000 | -75.57756 | 477 ft | 2 kts | 348° |
| 2026-04-22 03:40 | 39.99007 | -75.57759 | 468 ft | 2 kts | 329° |
| 2026-04-22 03:40 | 39.99039 | -75.57804 | 471 ft | 10 kts | 278° |
| 2026-04-22 03:40 | 39.99019 | -75.57921 | 468 ft | 18 kts | 256° |
| 2026-04-22 03:40 | 39.98983 | -75.58122 | 464 ft | 27 kts | 257° |
| 2026-04-22 03:41 | 39.98937 | -75.58371 | 458 ft | 29 kts | 256° |
| 2026-04-22 03:41 | 39.98895 | -75.58594 | 458 ft | 19 kts | 256° |
| 2026-04-22 03:41 | 39.98887 | -75.58729 | 455 ft | 13 kts | 302° |
| 2026-04-22 03:41 | 39.98914 | -75.58726 | 455 ft | 0 kts | 75° |
| 2026-04-22 03:42 | 39.98932 | -75.58623 | 457 ft | 36 kts | 77° |
| 2026-04-22 03:42 | 39.99039 | -75.58052 | 465 ft | 89 kts | 77° |
| 2026-04-22 03:42 | 39.99195 | -75.57216 | 720 ft | 101 kts | 78° |
| 2026-04-22 03:42 | 39.99495 | -75.56296 | 987 ft | 127 kts | 63° |
| 2026-04-22 03:43 | 40.00092 | -75.55227 | 1348 ft | 157 kts | 54° |
| 2026-04-22 03:43 | 40.00814 | -75.54051 | 1804 ft | 169 kts | 68° |
| 2026-04-22 03:43 | 40.01031 | -75.52547 | 2227 ft | 177 kts | 85° |
| 2026-04-22 03:43 | 40.01374 | -75.50946 | 2634 ft | 191 kts | 78° |
| 2026-04-22 03:44 | 40.01747 | -75.49243 | 3048 ft | 199 kts | 80° |
| 2026-04-22 03:44 | 40.02092 | -75.47446 | 3469 ft | 209 kts | 81° |
| 2026-04-22 03:44 | 40.02448 | -75.45525 | 3693 ft | 227 kts | 80° |
| 2026-04-22 03:44 | 40.02829 | -75.43499 | 3875 ft | 235 kts | 78° |
| 2026-04-22 03:45 | 40.03229 | -75.41405 | 4051 ft | 241 kts | 78° |
| 2026-04-22 03:45 | 40.03636 | -75.39263 | 4241 ft | 244 kts | 77° |
| 2026-04-22 03:45 | 40.04046 | -75.37096 | 4422 ft | 246 kts | 77° |
| 2026-04-22 03:45 | 40.04455 | -75.34927 | 4620 ft | 247 kts | 77° |
| 2026-04-22 03:46 | 40.04865 | -75.32759 | 4853 ft | 245 kts | 76° |
| 2026-04-22 03:46 | 40.05269 | -75.30616 | 5087 ft | 244 kts | 76° |
| 2026-04-22 03:46 | 40.05675 | -75.28462 | 5311 ft | 244 kts | 75° |
| 2026-04-22 03:46 | 40.06080 | -75.26312 | 5539 ft | 244 kts | 75° |
| 2026-04-22 03:47 | 40.06485 | -75.24157 | 5769 ft | 245 kts | 75° |
| 2026-04-22 03:47 | 40.06883 | -75.22036 | 5997 ft | 244 kts | 74° |
| 2026-04-22 03:47 | 40.07297 | -75.19832 | 6232 ft | 246 kts | 74° |
| 2026-04-22 03:47 | 40.07702 | -75.17670 | 6465 ft | 246 kts | 73° |
| 2026-04-22 03:48 | 40.08110 | -75.15490 | 6690 ft | 246 kts | 73° |
| 2026-04-22 03:48 | 40.08516 | -75.13313 | 6941 ft | 246 kts | 73° |
| 2026-04-22 03:48 | 40.08921 | -75.11146 | 7164 ft | 246 kts | 72° |
| 2026-04-22 03:48 | 40.09322 | -75.08995 | 7379 ft | 246 kts | 72° |
| 2026-04-22 03:49 | 40.09727 | -75.06823 | 7604 ft | 246 kts | 72° |
| 2026-04-22 03:49 | 40.10130 | -75.04656 | 7827 ft | 245 kts | 72° |
| 2026-04-22 03:49 | 40.10528 | -75.02512 | 8051 ft | 245 kts | 71° |
| 2026-04-22 03:49 | 40.10935 | -75.00324 | 8278 ft | 244 kts | 71° |
| 2026-04-22 03:50 | 40.11336 | -74.98161 | 8513 ft | 244 kts | 71° |
| 2026-04-22 03:50 | 40.11735 | -74.96009 | 8742 ft | 243 kts | 70° |
| 2026-04-22 03:50 | 40.12134 | -74.93852 | 8972 ft | 243 kts | 70° |
| 2026-04-22 03:50 | 40.12532 | -74.91706 | 9033 ft | 250 kts | 70° |
| 2026-04-22 03:51 | 40.12947 | -74.89464 | 9036 ft | 256 kts | 71° |
| 2026-04-22 03:51 | 40.13366 | -74.87181 | 9033 ft | 260 kts | 71° |
| 2026-04-22 03:51 | 40.13790 | -74.84872 | 9033 ft | 261 kts | 71° |
| 2026-04-22 03:51 | 40.14210 | -74.82584 | 9018 ft | 262 kts | 71° |
| 2026-04-22 03:52 | 40.14636 | -74.80267 | 9017 ft | 262 kts | 71° |
| 2026-04-22 03:52 | 40.15063 | -74.77944 | 9019 ft | 263 kts | 71° |
| 2026-04-22 03:52 | 40.15490 | -74.75613 | 9019 ft | 263 kts | 71° |
| 2026-04-22 03:52 | 40.15918 | -74.73274 | 9019 ft | 263 kts | 71° |
| 2026-04-22 03:53 | 40.16346 | -74.70983 | 9020 ft | 260 kts | 68° |
| 2026-04-22 03:53 | 40.17083 | -74.68888 | 9015 ft | 253 kts | 52° |
| 2026-04-22 03:53 | 40.18016 | -74.66916 | 9017 ft | 252 kts | 50° |
| 2026-04-22 03:53 | 40.18924 | -74.64939 | 9021 ft | 254 kts | 53° |
| 2026-04-22 03:54 | 40.19738 | -74.62906 | 9018 ft | 256 kts | 56° |
| 2026-04-22 03:54 | 40.20543 | -74.60822 | 9022 ft | 256 kts | 56° |
| 2026-04-22 03:54 | 40.21364 | -74.58762 | 9025 ft | 256 kts | 55° |
| 2026-04-22 03:54 | 40.22200 | -74.56697 | 9026 ft | 256 kts | 55° |
| 2026-04-22 03:55 | 40.23034 | -74.54626 | 9025 ft | 256 kts | 55° |
| 2026-04-22 03:55 | 40.23863 | -74.52551 | 9029 ft | 256 kts | 55° |
| 2026-04-22 03:55 | 40.24680 | -74.50509 | 9027 ft | 256 kts | 55° |
| 2026-04-22 03:55 | 40.25510 | -74.48437 | 9032 ft | 257 kts | 55° |
| 2026-04-22 03:56 | 40.26340 | -74.46360 | 9036 ft | 257 kts | 55° |
| 2026-04-22 03:56 | 40.27170 | -74.44284 | 9040 ft | 257 kts | 55° |
| 2026-04-22 03:56 | 40.28000 | -74.42207 | 9038 ft | 257 kts | 55° |
| 2026-04-22 03:56 | 40.28835 | -74.40113 | 9041 ft | 257 kts | 55° |
| 2026-04-22 03:57 | 40.29655 | -74.38059 | 9038 ft | 257 kts | 55° |
| 2026-04-22 03:57 | 40.30471 | -74.36011 | 9043 ft | 257 kts | 55° |
| 2026-04-22 03:57 | 40.31303 | -74.33922 | 9044 ft | 257 kts | 55° |
| 2026-04-22 03:57 | 40.32131 | -74.31843 | 9041 ft | 257 kts | 55° |
| 2026-04-22 03:58 | 40.32955 | -74.29770 | 9044 ft | 257 kts | 55° |
| 2026-04-22 03:58 | 40.33784 | -74.27686 | 9043 ft | 257 kts | 55° |
| 2026-04-22 03:58 | 40.34614 | -74.25598 | 9043 ft | 257 kts | 55° |
| 2026-04-22 03:58 | 40.35437 | -74.23523 | 9044 ft | 257 kts | 55° |
| 2026-04-22 03:59 | 40.36265 | -74.21436 | 9047 ft | 257 kts | 55° |
| 2026-04-22 03:59 | 40.37089 | -74.19357 | 9050 ft | 257 kts | 56° |
| 2026-04-22 03:59 | 40.37898 | -74.17314 | 9055 ft | 256 kts | 56° |
| 2026-04-22 03:59 | 40.38721 | -74.15235 | 9049 ft | 256 kts | 55° |
| 2026-04-22 04:00 | 40.39542 | -74.13162 | 9053 ft | 256 kts | 55° |
| 2026-04-22 04:00 | 40.40365 | -74.11080 | 9051 ft | 257 kts | 56° |
| 2026-04-22 04:00 | 40.41188 | -74.08998 | 9052 ft | 257 kts | 56° |
| 2026-04-22 04:00 | 40.42000 | -74.06940 | 9056 ft | 257 kts | 56° |
| 2026-04-22 04:01 | 40.42822 | -74.04854 | 9051 ft | 256 kts | 56° |
| 2026-04-22 04:01 | 40.43640 | -74.02779 | 9054 ft | 256 kts | 56° |
| 2026-04-22 04:01 | 40.44457 | -74.00706 | 9051 ft | 255 kts | 56° |
| 2026-04-22 04:01 | 40.45267 | -73.98645 | 9058 ft | 254 kts | 56° |
| 2026-04-22 04:02 | 40.46077 | -73.96583 | 9065 ft | 253 kts | 56° |
| 2026-04-22 04:02 | 40.46884 | -73.94530 | 9059 ft | 253 kts | 56° |
| 2026-04-22 04:02 | 40.47699 | -73.92493 | 9060 ft | 249 kts | 52° |
| 2026-04-22 04:02 | 40.48641 | -73.90649 | 9067 ft | 245 kts | 47° |
| 2026-04-22 04:03 | 40.49638 | -73.88830 | 9063 ft | 245 kts | 46° |
| 2026-04-22 04:03 | 40.50639 | -73.87017 | 9018 ft | 245 kts | 46° |
| 2026-04-22 04:03 | 40.51661 | -73.85185 | 8789 ft | 253 kts | 46° |
| 2026-04-22 04:03 | 40.52728 | -73.83302 | 8558 ft | 257 kts | 46° |
| 2026-04-22 04:04 | 40.53807 | -73.81424 | 8322 ft | 258 kts | 46° |
| 2026-04-22 04:04 | 40.54860 | -73.79531 | 8027 ft | 261 kts | 50° |
| 2026-04-22 04:04 | 40.55863 | -73.77533 | 7727 ft | 263 kts | 52° |
| 2026-04-22 04:04 | 40.56853 | -73.75519 | 7428 ft | 263 kts | 53° |
| 2026-04-22 04:05 | 40.57815 | -73.73451 | 7130 ft | 263 kts | 55° |
| 2026-04-22 04:05 | 40.58765 | -73.71384 | 6836 ft | 263 kts | 55° |
| 2026-04-22 04:05 | 40.59719 | -73.69339 | 6531 ft | 262 kts | 55° |
| 2026-04-22 04:05 | 40.60679 | -73.67304 | 6212 ft | 261 kts | 55° |
| 2026-04-22 04:06 | 40.61641 | -73.65285 | 5901 ft | 260 kts | 55° |
| 2026-04-22 04:06 | 40.62598 | -73.63291 | 5695 ft | 255 kts | 55° |
| 2026-04-22 04:06 | 40.63532 | -73.61353 | 5521 ft | 252 kts | 55° |
| 2026-04-22 04:06 | 40.64471 | -73.59407 | 5341 ft | 250 kts | 55° |
| 2026-04-22 04:07 | 40.65406 | -73.57477 | 5151 ft | 249 kts | 55° |
| 2026-04-22 04:07 | 40.66020 | -73.56197 | 5032 ft | 249 kts | 56° |
| 2026-04-22 04:07 | 40.66918 | -73.54243 | 4810 ft | 249 kts | 57° |
| 2026-04-22 04:07 | 40.68111 | -73.51624 | 4458 ft | 252 kts | 57° |
| 2026-04-22 04:08 | 40.69022 | -73.49647 | 4195 ft | 252 kts | 57° |
| 2026-04-22 04:08 | 40.69629 | -73.48336 | 4023 ft | 252 kts | 57° |
| 2026-04-22 04:08 | 40.70534 | -73.46395 | 3772 ft | 250 kts | 57° |
| 2026-04-22 04:08 | 40.71416 | -73.44494 | 3523 ft | 249 kts | 59° |
| 2026-04-22 04:09 | 40.72248 | -73.42428 | 3249 ft | 249 kts | 62° |
| 2026-04-22 04:09 | 40.73025 | -73.40382 | 3008 ft | 249 kts | 63° |
| 2026-04-22 04:09 | 40.73790 | -73.38372 | 2996 ft | 242 kts | 63° |
| 2026-04-22 04:09 | 40.74543 | -73.36402 | 2912 ft | 239 kts | 63° |
| 2026-04-22 04:10 | 40.75291 | -73.34443 | 2783 ft | 237 kts | 63° |
| 2026-04-22 04:10 | 40.76029 | -73.32517 | 2646 ft | 233 kts | 63° |
| 2026-04-22 04:10 | 40.76749 | -73.30650 | 2519 ft | 231 kts | 63° |
| 2026-04-22 04:10 | 40.77461 | -73.28766 | 2440 ft | 227 kts | 65° |
| 2026-04-22 04:11 | 40.78076 | -73.26859 | 2329 ft | 225 kts | 69° |
| 2026-04-22 04:11 | 40.78605 | -73.24926 | 2245 ft | 222 kts | 72° |
| 2026-04-22 04:11 | 40.79046 | -73.23154 | 1996 ft | 197 kts | 74° |
| 2026-04-22 04:11 | 40.79429 | -73.21509 | 1897 ft | 171 kts | 76° |
| 2026-04-22 04:12 | 40.79740 | -73.20074 | 1708 ft | 159 kts | 77° |
| 2026-04-22 04:12 | 40.80037 | -73.18718 | 1598 ft | 144 kts | 75° |
| 2026-04-22 04:12 | 40.80323 | -73.17544 | 1559 ft | 130 kts | 75° |
| 2026-04-22 04:12 | 40.80582 | -73.16468 | 1452 ft | 118 kts | 76° |
| 2026-04-22 04:13 | 40.80811 | -73.15460 | 1246 ft | 118 kts | 79° |
| 2026-04-22 04:13 | 40.81009 | -73.14452 | 1013 ft | 108 kts | 83° |
| 2026-04-22 04:13 | 40.81129 | -73.13507 | 783 ft | 101 kts | 90° |
| 2026-04-22 04:13 | 40.81125 | -73.12620 | 589 ft | 95 kts | 103° |
| 2026-04-22 04:14 | 40.80931 | -73.11837 | 379 ft | 84 kts | 121° |
| 2026-04-22 04:14 | 40.80609 | -73.11249 | 231 ft | 74 kts | 134° |
| 2026-04-22 04:14 | 40.80269 | -73.10796 | 115 ft | 64 kts | 136° |
| 2026-04-22 04:14 | 40.79975 | -73.10409 | 101 ft | 52 kts | 135° |
| 2026-04-22 04:15 | 40.79841 | -73.10233 | 102 ft | 13 kts | 136° |
| 2026-04-22 04:15 | 40.79768 | -73.10258 | 101 ft | 11 kts | 226° |
| 2026-04-22 04:15 | 40.79779 | -73.10357 | 99 ft | 21 kts | 317° |
| 2026-04-22 04:15 | 40.79903 | -73.10521 | 100 ft | 27 kts | 315° |
| 2026-04-22 04:16 | 40.80022 | -73.10678 | 99 ft | 18 kts | 315° |
| 2026-04-22 04:16 | 40.80067 | -73.10826 | 99 ft | 4 kts | 266° |
| 2026-04-22 04:16 | 40.80084 | -73.10838 | 102 ft | 0 kts | 0° |